BGSFBGKK

Guest
Details From BGSF - Kangerlussuaq
To BGKK - Kulusuk
Flight Number -
Tags generated
Created
Modified
Stats Distance 339 nm / 628 km
Max Altitude 31,500 ft / 9,601 m
Waypoints 5
Social Downloads 2
Likes 0
Share VATSIM

Download

Looking for another format? Having issues loading an existing format? Contact us
Advertisement - Login to hide

Notes

Basic altitude profile: - Ascent Rate: 2500ft/min - Ascent Speed: 250kts - Cruise Altitude: 35000ft - Cruise Speed: 420kts - Descent Rate: 1500ft/min - Descent Speed: 250kts Options: - Use NATs: yes - Use PACOTS: yes - Use low airways: yes - Use high airways: yes

Route

BGSF PEVAR W28 DA BGKK

ID Type Via Altitude Latitude Longitude Leg Dist Tot Dist Heading (true) Name
O BGSF APT - 0 ft / 0 m 67.01160˚ -50.71472˚ - 0 nm - Kangerlussuaq
PEVAR FIX - 31,500 ft / 9,601 m 66.69917˚ -46.93972˚ 91 nm 91 nm 100° / 104° -
MASIK FIX W28 (AWY-LO) 15,000 ft / 4,572 m 65.96778˚ -39.99528˚ 172 nm 264 nm 102° / 108° -
DA NDB W28 (AWY-LO) 8,000 ft / 2,438 m 65.57056˚ -37.20694˚ 72 nm 336 nm 108° / 110° KULUSUK NDB
O BGKK APT - 0 ft / 0 m 65.57361˚ -37.12361˚ 2 nm 338 nm 85° / 85° Kulusuk

Altitude Profile

Advertisement - Login to hide

Weather


0- 5 10 15 20 25 30 35+ Temperature / ° C

Clouds and Precipitation
Forecast for 2018-05-24 00:00 UTC. Updated 4 hours ago

Ground ~20,000 ft ~40,000 ft Winds

BGSF

Details ICAO BGSF (SFJ)
Name Kangerlussuaq
Region Greenland
Timezone America/Godthab (UTC-2.0)
Stats Elevation 165 ft / 50 m (AMSL)
Location 67.011605° -50.714721°
Runways 2
Magnetic Variation 28.857° W

METAR

BGSF 240150Z AUTO 25010KT 9999NDV -RA BKN038/// 01/M02 Q1004

Decode

TAF

Not found

Departure Runways

ID Width Length Bearing (true) Bearing (mag) Surface Threshold Offset Overrun Length
09 197 ft / 60 m 9,169 ft / 2,795 m 61.57° 90.43° Asphalt 0 ft / 0 m 509 ft / 155 m
10 197 ft / 60 m 9,187 ft / 2,800 m 61.55° 90.41° Asphalt 0 ft / 0 m 0 ft / 0 m
27 197 ft / 60 m 9,169 ft / 2,795 m 241.63° 270.49° Asphalt 0 ft / 0 m 171 ft / 52 m
28 197 ft / 60 m 9,187 ft / 2,800 m 241.60° 270.46° Asphalt 0 ft / 0 m 0 ft / 0 m

BGKK

Details ICAO BGKK
Name Kulusuk
Region Greenland
Timezone America/Godthab (UTC-2.0)
Stats Elevation 114 ft / 35 m (AMSL)
Location 65.573608° -37.123608°
Runways 1
Magnetic Variation 22.174° W

METAR

BGKK 240150Z AUTO 08012KT 060V120 9999NDV -SHRA BKN013/// 01/M01 Q1006

Decode

TAF

Not found

Destination Runways

ID Width Length Bearing (true) Bearing (mag) Surface Threshold Offset Overrun Length
11 98 ft / 30 m 3,956 ft / 1,206 m 83.99° 106.16° Gravel 0 ft / 0 m 0 ft / 0 m
29 98 ft / 30 m 3,956 ft / 1,206 m 264.01° 286.18° Gravel 0 ft / 0 m 0 ft / 0 m

Popular Alternatives